createdAt,value
2019-05-10T00:00:16.284Z,10.73
2019-05-10T00:03:03.209Z,11.00
2019-05-10T00:05:50.101Z,11.23
2019-05-10T00:08:37.676Z,11.00
2019-05-10T00:11:09.029Z,11.50
2019-05-10T00:13:57.682Z,11.60
2019-05-10T00:16:27.502Z,12.70
2019-05-10T00:18:56.727Z,13.13
2019-05-10T00:21:25.931Z,13.13
2019-05-10T00:23:55.104Z,14.03
2019-05-10T00:26:24.347Z,12.93
2019-05-10T00:28:53.605Z,13.10
2019-05-10T00:31:22.773Z,14.27
2019-05-10T00:33:52.008Z,13.23
2019-05-10T00:36:21.294Z,13.60
2019-05-10T00:38:50.527Z,14.03
2019-05-10T00:41:19.691Z,13.53
2019-05-10T00:43:48.878Z,13.23
2019-05-10T00:46:18.048Z,13.93
2019-05-10T00:48:47.218Z,14.37
2019-05-10T00:51:16.447Z,14.67
2019-05-10T00:53:45.606Z,15.07
2019-05-10T00:56:14.762Z,15.43
2019-05-10T00:58:43.961Z,15.23
2019-05-10T01:01:13.149Z,14.23
2019-05-10T01:03:42.391Z,14.57
2019-05-10T01:06:11.653Z,14.53
2019-05-10T01:08:40.813Z,14.53
2019-05-10T01:11:09.976Z,14.83
2019-05-10T01:13:39.188Z,15.10
2019-05-10T01:16:08.359Z,15.40
2019-05-10T01:18:37.594Z,15.13
2019-05-10T01:21:06.857Z,15.03
2019-05-10T01:23:36.023Z,15.20
2019-05-10T01:26:05.196Z,15.27
2019-05-10T01:28:36.062Z,14.97
2019-05-10T01:31:06.093Z,15.57
2019-05-10T01:33:35.427Z,16.80
2019-05-10T01:36:04.785Z,16.33
2019-05-10T01:38:34.012Z,16.93
2019-05-10T01:41:03.178Z,16.27
2019-05-10T01:43:32.369Z,16.30
2019-05-10T01:46:01.612Z,16.20
2019-05-10T01:48:30.772Z,17.17
2019-05-10T01:50:59.961Z,16.83
2019-05-10T01:53:29.135Z,16.80
2019-05-10T01:55:58.300Z,17.10
2019-05-10T01:58:27.968Z,17.20
2019-05-10T02:00:58.013Z,16.90
2019-05-10T02:03:27.363Z,15.93
2019-05-10T02:05:56.619Z,16.20
2019-05-10T02:08:25.846Z,16.67
2019-05-10T02:10:55.011Z,16.50
2019-05-10T02:13:24.205Z,16.63
2019-05-10T02:15:53.373Z,16.80
2019-05-10T02:18:22.535Z,18.10
2019-05-10T02:20:51.826Z,17.33
2019-05-10T02:23:20.978Z,17.10
2019-05-10T02:25:50.154Z,18.17
2019-05-10T02:28:19.437Z,17.47
2019-05-10T02:30:49.419Z,17.20
2019-05-10T02:33:18.577Z,17.77
2019-05-10T02:35:47.829Z,17.60
2019-05-10T02:38:17.072Z,18.07
2019-05-10T02:40:46.623Z,19.13
2019-05-10T02:43:15.981Z,17.53
2019-05-10T02:45:45.137Z,17.60
2019-05-10T02:48:14.294Z,19.53
2019-05-10T02:50:43.764Z,19.10
2019-05-10T02:53:13.005Z,18.87
2019-05-10T02:55:43.003Z,20.10
2019-05-10T02:58:15.109Z,20.97
2019-05-10T03:00:46.420Z,19.43
2019-05-10T03:03:17.917Z,19.70
2019-05-10T03:05:49.539Z,19.13
2019-05-10T03:08:19.591Z,20.27
2019-05-10T03:10:59.569Z,20.73
2019-05-10T03:13:29.444Z,20.90
2019-05-10T03:16:01.745Z,21.47
2019-05-10T03:18:33.307Z,20.37
2019-05-10T03:21:02.726Z,21.93
2019-05-10T03:23:31.958Z,21.53
2019-05-10T03:26:01.234Z,21.23
2019-05-10T03:28:30.628Z,21.90
2019-05-10T03:31:00.246Z,21.03
2019-05-10T03:33:29.648Z,22.70
2019-05-10T03:35:58.889Z,22.30
2019-05-10T03:38:28.285Z,22.17
2019-05-10T03:40:57.788Z,21.67
2019-05-10T03:43:27.086Z,21.33
2019-05-10T03:45:56.882Z,22.63
2019-05-10T03:48:26.151Z,21.77
2019-05-10T03:50:55.315Z,22.80
2019-05-10T03:53:24.482Z,22.50
2019-05-10T03:55:53.701Z,22.37
2019-05-10T03:58:22.942Z,23.53
2019-05-10T04:00:52.176Z,22.93
2019-05-10T04:03:21.385Z,22.87
2019-05-10T04:05:51.285Z,23.93
2019-05-10T04:08:20.446Z,23.07
2019-05-10T04:10:49.736Z,24.57
2019-05-10T04:13:18.966Z,24.47
2019-05-10T04:15:48.123Z,24.77
2019-05-10T04:18:17.872Z,23.57
2019-05-10T04:20:47.039Z,24.60
2019-05-10T04:23:16.190Z,24.67
2019-05-10T04:25:45.399Z,24.00
2019-05-10T04:28:14.640Z,24.53
2019-05-10T04:30:43.822Z,24.57
2019-05-10T04:33:13.091Z,25.33
2019-05-10T04:35:42.322Z,23.60
2019-05-10T04:38:11.483Z,24.10
2019-05-10T04:40:40.695Z,25.43
2019-05-10T04:43:09.864Z,25.87
2019-05-10T04:45:39.101Z,25.20
2019-05-10T04:48:08.443Z,25.87
2019-05-10T04:50:37.684Z,26.50
2019-05-10T04:53:06.919Z,26.33
2019-05-10T04:55:36.713Z,27.27
2019-05-10T04:58:05.997Z,27.87
2019-05-10T05:00:35.206Z,28.47
2019-05-10T05:03:04.664Z,28.07
2019-05-10T05:05:33.890Z,30.20
2019-05-10T05:08:06.202Z,28.77
2019-05-10T05:10:34.042Z,29.90
2019-05-10T05:13:03.682Z,29.87
2019-05-10T05:15:33.177Z,30.83
2019-05-10T05:18:02.371Z,31.07
2019-05-10T05:20:31.713Z,30.90
2019-05-10T05:23:01.589Z,30.47
2019-05-10T05:25:35.222Z,32.07
2019-05-10T05:28:07.959Z,31.40
2019-05-10T05:30:38.542Z,30.73
2019-05-10T05:33:06.043Z,31.93
2019-05-10T05:35:35.202Z,31.30
2019-05-10T05:38:04.922Z,32.33
2019-05-10T05:40:34.582Z,31.03
2019-05-10T05:43:08.037Z,31.40
2019-05-10T05:45:35.695Z,31.07
2019-05-10T05:48:05.159Z,29.67
2019-05-10T05:50:35.279Z,32.17
2019-05-10T05:53:04.573Z,29.67
2019-05-10T05:55:33.970Z,32.77
2019-05-10T05:58:07.113Z,32.97
2019-05-10T06:00:37.921Z,30.93
2019-05-10T06:03:06.687Z,32.07
2019-05-10T06:05:37.296Z,31.23
2019-05-10T06:08:21.441Z,31.13
2019-05-10T06:10:37.828Z,31.30
2019-05-10T06:13:06.982Z,30.70
2019-05-10T06:15:36.500Z,29.93
2019-05-10T06:18:09.528Z,31.60
2019-05-10T06:20:38.109Z,30.73
2019-05-10T06:23:08.596Z,30.47
2019-05-10T06:25:40.070Z,31.07
2019-05-10T06:28:25.097Z,30.33
2019-05-10T06:30:40.696Z,30.40
2019-05-10T06:33:12.628Z,30.30
2019-05-10T06:35:41.413Z,28.53
2019-05-10T06:38:10.578Z,27.40
2019-05-10T06:40:46.721Z,26.87
2019-05-10T06:43:13.321Z,26.47
2019-05-10T06:45:46.582Z,27.07
2019-05-10T06:48:13.749Z,26.03
2019-05-10T06:50:42.993Z,26.03
2019-05-10T06:53:12.228Z,25.83
2019-05-10T06:55:41.527Z,24.13
2019-05-10T06:58:10.769Z,25.73
2019-05-10T07:00:45.059Z,25.27
2019-05-10T07:03:10.918Z,24.57
2019-05-10T07:05:40.152Z,25.03
2019-05-10T07:08:16.462Z,23.90
2019-05-10T07:10:40.354Z,23.70
2019-05-10T07:13:09.652Z,24.57
2019-05-10T07:15:42.200Z,23.40
2019-05-10T07:18:10.357Z,21.97
2019-05-10T07:20:43.021Z,22.73
2019-05-10T07:23:10.384Z,21.87
2019-05-10T07:25:43.548Z,20.03
2019-05-10T07:28:15.902Z,20.67
2019-05-10T07:30:41.838Z,20.07
2019-05-10T07:33:11.277Z,19.73
2019-05-10T07:35:40.499Z,20.60
2019-05-10T07:38:09.677Z,19.30
2019-05-10T07:40:38.942Z,18.23
2019-05-10T07:43:08.102Z,15.20
2019-05-10T07:45:37.274Z,13.73
2019-05-10T07:48:08.312Z,14.13
2019-05-10T07:50:42.482Z,13.97
2019-05-10T07:53:08.482Z,12.80
2019-05-10T07:55:37.685Z,13.17
2019-05-10T07:58:07.516Z,13.73
2019-05-10T08:00:38.247Z,14.90
2019-05-10T08:03:16.087Z,15.60
2019-05-10T08:05:39.267Z,16.37
2019-05-10T08:08:09.533Z,16.00
2019-05-10T08:10:39.983Z,15.77
2019-05-10T08:13:09.211Z,13.53
2019-05-10T08:15:38.669Z,13.50
2019-05-10T08:18:09.805Z,14.97
2019-05-10T08:20:49.627Z,14.73
2019-05-10T08:23:09.799Z,16.47
2019-05-10T08:25:43.848Z,13.00
2019-05-10T08:28:12.537Z,12.60
2019-05-10T08:30:58.502Z,11.67
2019-05-10T08:33:17.162Z,13.40
2019-05-10T08:35:46.756Z,14.63
2019-05-10T08:38:17.212Z,13.83
2019-05-10T08:40:46.370Z,11.80
2019-05-10T08:43:16.900Z,10.27
2019-05-10T08:45:49.492Z,11.30
2019-05-10T08:48:17.475Z,12.43
2019-05-10T08:50:54.193Z,13.87
2019-05-10T08:53:17.578Z,13.47
2019-05-10T08:55:46.807Z,15.03
2019-05-10T08:58:21.627Z,14.40
2019-05-10T09:00:55.069Z,13.97
2019-05-10T09:03:18.836Z,14.07
2019-05-10T09:05:48.535Z,15.20
2019-05-10T09:08:19.850Z,13.53
2019-05-10T09:10:48.691Z,11.70
2019-05-10T09:13:17.856Z,10.93
2019-05-10T09:15:51.933Z,12.10
2019-05-10T09:18:17.932Z,12.37
2019-05-10T09:20:47.111Z,10.87
2019-05-10T09:23:20.041Z,14.67
2019-05-10T09:25:47.253Z,16.97
2019-05-10T09:28:17.130Z,17.07
2019-05-10T09:30:59.391Z,18.67
2019-05-10T09:33:17.768Z,17.37
2019-05-10T09:35:51.675Z,19.00
2019-05-10T09:38:18.515Z,18.23
2019-05-10T09:40:52.923Z,18.33
2019-05-10T09:43:21.299Z,17.13
2019-05-10T09:45:49.526Z,20.10
2019-05-10T09:48:18.702Z,20.23
2019-05-10T09:50:47.928Z,21.90
2019-05-10T09:53:23.583Z,22.53
2019-05-10T09:55:55.092Z,21.73
2019-05-10T09:58:22.179Z,20.27
2019-05-10T10:00:50.512Z,21.57
2019-05-10T10:03:20.051Z,20.20
2019-05-10T10:05:49.378Z,21.50
2019-05-10T10:08:18.709Z,20.60
2019-05-10T10:10:47.862Z,21.70
2019-05-10T10:13:33.952Z,22.13
2019-05-10T10:15:52.112Z,22.23
2019-05-10T10:18:25.024Z,21.30
2019-05-10T10:20:49.714Z,21.13
2019-05-10T10:23:19.003Z,22.37
2019-05-10T10:25:48.573Z,21.07
2019-05-10T10:28:19.952Z,21.10
2019-05-10T10:30:59.150Z,25.37
2019-05-10T10:33:25.356Z,22.20
2019-05-10T10:35:56.555Z,22.73
2019-05-10T10:38:27.585Z,23.23
2019-05-10T10:40:57.384Z,23.43
2019-05-10T10:43:27.242Z,27.00
2019-05-10T10:45:57.466Z,36.37
2019-05-10T10:48:28.449Z,28.33
2019-05-10T10:50:58.813Z,26.57
2019-05-10T10:53:28.473Z,26.40
2019-05-10T10:56:03.585Z,29.67
2019-05-10T10:58:28.575Z,29.73
2019-05-10T11:00:57.786Z,32.00
2019-05-10T11:03:30.245Z,26.67
2019-05-10T11:05:57.814Z,28.27
2019-05-10T11:08:27.023Z,33.83
2019-05-10T11:10:56.260Z,31.13
2019-05-10T11:13:41.655Z,31.57
2019-05-10T11:15:58.972Z,33.17
2019-05-10T11:18:27.742Z,34.83
2019-05-10T11:20:58.737Z,34.80
2019-05-10T11:23:33.999Z,36.13
2019-05-10T11:26:01.199Z,35.23
2019-05-10T11:28:38.474Z,35.10
2019-05-10T11:31:01.153Z,36.00
2019-05-10T11:33:33.518Z,36.73
2019-05-10T11:36:06.579Z,35.97
2019-05-10T11:38:33.382Z,37.20
2019-05-10T11:41:07.193Z,36.23
2019-05-10T11:43:33.434Z,36.93
2019-05-10T11:46:02.608Z,36.00
2019-05-10T11:48:37.164Z,33.63
2019-05-10T11:51:05.591Z,34.53
2019-05-10T11:53:33.912Z,34.77
2019-05-10T11:56:07.899Z,34.70
2019-05-10T11:58:37.768Z,34.27
2019-05-10T12:01:14.682Z,32.57
2019-05-10T12:03:36.691Z,31.40
2019-05-10T12:06:08.969Z,31.47
2019-05-10T12:08:36.784Z,32.83
2019-05-10T12:11:14.085Z,32.07
2019-05-10T12:13:36.926Z,31.03
2019-05-10T12:16:06.094Z,28.27
2019-05-10T12:18:36.296Z,28.47
2019-05-10T12:21:09.628Z,24.73
2019-05-10T12:23:45.952Z,24.83
2019-05-10T12:28:40.778Z,25.73
2019-05-10T12:31:15.154Z,22.93
2019-05-10T12:33:44.803Z,19.73
2019-05-10T12:36:22.394Z,20.73
2019-05-10T12:38:42.636Z,20.07
2019-05-10T12:41:12.008Z,21.80
2019-05-10T12:43:43.667Z,23.20
2019-05-10T12:46:14.574Z,24.27
2019-05-10T12:48:43.746Z,23.07
2019-05-10T12:51:16.465Z,23.70
2019-05-10T12:53:47.742Z,23.00
2019-05-10T12:56:14.760Z,23.00
2019-05-10T12:58:43.963Z,23.17
2019-05-10T13:01:13.131Z,24.67
2019-05-10T13:03:42.300Z,24.43
2019-05-10T13:06:11.511Z,24.93
2019-05-10T13:08:40.662Z,23.20
2019-05-10T13:11:09.852Z,22.30
2019-05-10T13:13:39.205Z,24.07
2019-05-10T13:16:09.625Z,24.37
2019-05-10T13:18:51.906Z,23.37
2019-05-10T13:21:19.484Z,23.20
2019-05-10T13:23:41.927Z,23.77
2019-05-10T13:26:11.083Z,25.50
2019-05-10T13:28:40.299Z,24.80
2019-05-10T13:31:09.461Z,23.70
2019-05-10T13:33:42.121Z,23.50
2019-05-10T13:36:09.877Z,24.80
2019-05-10T13:38:43.913Z,24.43
2019-05-10T13:41:09.901Z,23.20
2019-05-10T13:43:41.731Z,22.33
2019-05-10T13:46:10.961Z,23.40
2019-05-10T13:48:40.130Z,24.03
2019-05-10T13:51:09.373Z,24.10
2019-05-10T13:53:38.530Z,22.90
2019-05-10T13:56:07.717Z,23.33
2019-05-10T13:58:36.986Z,23.70
2019-05-10T14:01:13.240Z,26.23
2019-05-10T14:03:45.198Z,24.40
2019-05-10T14:06:08.431Z,26.00
2019-05-10T14:08:42.793Z,26.00
2019-05-10T14:11:08.527Z,25.47
2019-05-10T14:13:41.387Z,25.80
2019-05-10T14:16:13.402Z,24.60
2019-05-10T14:18:39.703Z,24.80
2019-05-10T14:21:08.915Z,26.30
2019-05-10T14:23:38.082Z,25.93
2019-05-10T14:26:09.495Z,24.60
2019-05-10T14:28:38.152Z,23.57
2019-05-10T14:31:07.319Z,25.37
2019-05-10T14:33:36.474Z,24.63
2019-05-10T14:36:05.887Z,23.37
2019-05-10T14:38:35.136Z,23.33
2019-05-10T14:41:10.869Z,23.57
2019-05-10T14:43:35.271Z,22.90
2019-05-10T14:46:04.556Z,21.93
2019-05-10T14:48:35.543Z,23.47
2019-05-10T14:51:11.219Z,22.53
2019-05-10T14:53:35.693Z,21.70
2019-05-10T14:56:07.885Z,21.23
2019-05-10T14:58:35.813Z,22.40
2019-05-10T15:01:05.042Z,21.73
2019-05-10T15:03:35.256Z,20.77
2019-05-10T15:06:05.207Z,21.20
2019-05-10T15:08:34.381Z,20.67
2019-05-10T15:11:04.078Z,20.10
2019-05-10T15:13:35.138Z,19.83
2019-05-10T15:16:08.305Z,19.87
2019-05-10T15:18:35.243Z,20.13
2019-05-10T15:21:04.920Z,20.70
2019-05-10T15:23:34.394Z,21.20
2019-05-10T15:26:10.828Z,21.63
2019-05-10T15:28:40.733Z,21.97
2019-05-10T15:31:05.399Z,20.93
2019-05-10T15:33:35.048Z,21.00
2019-05-10T15:36:04.263Z,21.97
2019-05-10T15:38:33.447Z,22.47
2019-05-10T15:41:02.691Z,22.30
2019-05-10T15:43:32.015Z,21.07
2019-05-10T15:46:01.184Z,23.10
2019-05-10T15:48:30.460Z,22.37
2019-05-10T15:50:59.671Z,22.73
2019-05-10T15:53:28.842Z,23.03
2019-05-10T15:55:58.869Z,23.17
2019-05-10T15:58:30.680Z,24.77
2019-05-10T16:00:59.882Z,23.17
2019-05-10T16:03:29.114Z,24.17
2019-05-10T16:06:00.689Z,23.53
2019-05-10T16:08:30.368Z,23.33
2019-05-10T16:11:00.360Z,23.93
2019-05-10T16:13:29.648Z,23.37
2019-05-10T16:15:59.593Z,24.30
2019-05-10T16:18:33.313Z,24.00
2019-05-10T16:21:00.127Z,22.40
2019-05-10T16:23:29.407Z,22.83
2019-05-10T16:25:58.579Z,22.70
2019-05-10T16:28:27.809Z,24.10
2019-05-10T16:30:57.021Z,24.90
2019-05-10T16:33:26.316Z,23.30
2019-05-10T16:35:55.517Z,22.20
2019-05-10T16:38:24.689Z,22.87
2019-05-10T16:40:58.293Z,24.50
2019-05-10T16:43:24.976Z,22.63
2019-05-10T16:45:54.560Z,23.50
2019-05-10T16:48:23.925Z,23.63
2019-05-10T16:50:53.165Z,23.03
2019-05-10T16:53:22.508Z,22.80
2019-05-10T16:55:51.684Z,23.80
2019-05-10T16:58:22.459Z,22.87
2019-05-10T17:00:52.004Z,23.80
2019-05-10T17:03:21.530Z,22.30
2019-05-10T17:05:53.939Z,22.73
2019-05-10T17:08:21.609Z,23.07
2019-05-10T17:10:50.847Z,22.63
2019-05-10T17:13:20.506Z,26.60
2019-05-10T17:15:49.654Z,22.63
2019-05-10T17:18:19.995Z,22.13
2019-05-10T17:20:51.066Z,22.23
2019-05-10T17:23:21.166Z,23.73
2019-05-10T17:25:50.340Z,22.13
2019-05-10T17:28:19.906Z,22.77
2019-05-10T17:30:49.067Z,23.80
2019-05-10T17:33:18.238Z,23.03
2019-05-10T17:35:47.530Z,21.43
2019-05-10T17:38:17.434Z,22.93
2019-05-10T17:40:49.828Z,21.67
2019-05-10T17:43:20.628Z,22.73
2019-05-10T17:45:49.259Z,21.20
2019-05-10T17:48:18.475Z,20.23
2019-05-10T17:50:47.824Z,21.73
2019-05-10T17:53:16.990Z,21.03
2019-05-10T17:55:49.141Z,20.73
2019-05-10T17:58:17.330Z,20.20
2019-05-10T18:00:46.696Z,19.83
2019-05-10T18:03:15.931Z,21.60
2019-05-10T18:05:46.693Z,21.67
2019-05-10T18:08:16.146Z,20.00
2019-05-10T18:10:45.329Z,20.33
2019-05-10T18:13:14.582Z,19.10
2019-05-10T18:15:46.015Z,20.10
2019-05-10T18:18:15.171Z,21.00
2019-05-10T18:20:44.804Z,25.00
2019-05-10T18:23:21.160Z,21.07
2019-05-10T18:25:45.191Z,20.83
2019-05-10T18:28:17.743Z,25.70
2019-05-10T18:30:45.804Z,24.90
2019-05-10T18:33:15.048Z,36.37
2019-05-10T18:35:52.106Z,29.37
2019-05-10T18:38:18.150Z,22.40
2019-05-10T18:40:47.329Z,22.67
2019-05-10T18:43:16.614Z,20.70
2019-05-10T18:45:45.788Z,24.70
2019-05-10T18:48:15.054Z,26.13
2019-05-10T18:50:45.254Z,23.23
2019-05-10T18:53:15.269Z,22.60
2019-05-10T18:55:44.460Z,23.50
2019-05-10T18:58:13.721Z,22.60
2019-05-10T19:00:42.904Z,23.60
2019-05-10T19:03:12.730Z,24.63
2019-05-10T19:05:41.933Z,22.40
2019-05-10T19:08:11.096Z,20.60
2019-05-10T19:10:40.258Z,20.60
2019-05-10T19:13:09.740Z,22.90
2019-05-10T19:15:39.197Z,21.53
2019-05-10T19:18:08.379Z,21.30
2019-05-10T19:20:37.586Z,22.90
2019-05-10T19:23:06.759Z,22.40
2019-05-10T19:25:37.788Z,24.03
2019-05-10T19:28:07.196Z,22.83
2019-05-10T19:30:36.661Z,21.90
2019-05-10T19:33:05.884Z,22.50
2019-05-10T19:35:37.790Z,22.80
2019-05-10T19:38:06.685Z,22.03
2019-05-10T19:40:35.854Z,22.33
2019-05-10T19:43:05.202Z,21.10
2019-05-10T19:45:34.525Z,22.73
2019-05-10T19:48:05.892Z,23.23
2019-05-10T19:50:34.650Z,22.63
2019-05-10T19:53:05.475Z,21.77
2019-05-10T19:55:34.749Z,21.97
2019-05-10T19:58:04.825Z,22.13
2019-05-10T20:00:34.904Z,22.87
2019-05-10T20:03:04.139Z,22.07
2019-05-10T20:05:34.863Z,22.03
2019-05-10T20:08:05.615Z,21.47
2019-05-10T20:10:34.778Z,22.77
2019-05-10T20:13:03.974Z,22.63
2019-05-10T20:15:35.384Z,22.53
2019-05-10T20:18:04.643Z,22.07
2019-05-10T20:20:34.707Z,22.57
2019-05-10T20:23:03.938Z,22.77
2019-05-10T20:25:33.267Z,23.90
2019-05-10T20:28:06.115Z,21.93
2019-05-10T20:30:33.345Z,24.17
2019-05-10T20:33:02.509Z,23.20
2019-05-10T20:35:31.941Z,22.63
2019-05-10T20:38:02.527Z,22.03
2019-05-10T20:40:32.048Z,22.47
2019-05-10T20:43:01.277Z,23.23
2019-05-10T20:45:30.503Z,22.53
2019-05-10T20:47:59.998Z,23.60
2019-05-10T20:50:29.226Z,24.20
2019-05-10T20:52:58.466Z,24.07
2019-05-10T20:55:27.636Z,23.03
2019-05-10T20:57:56.861Z,23.97
2019-05-10T21:00:26.480Z,23.40
2019-05-10T21:02:55.732Z,23.33
2019-05-10T21:05:24.919Z,22.67
2019-05-10T21:07:54.222Z,24.23
2019-05-10T21:10:23.377Z,24.23
2019-05-10T21:12:52.572Z,24.60
2019-05-10T21:15:22.487Z,26.00
2019-05-10T21:17:51.651Z,27.50
2019-05-10T21:20:20.868Z,29.03
2019-05-10T21:22:50.211Z,29.67
2019-05-10T21:25:19.366Z,29.60
2019-05-10T21:27:48.585Z,31.90
2019-05-10T21:30:17.895Z,30.83
2019-05-10T21:32:47.063Z,29.43
2019-05-10T21:35:16.736Z,30.43
2019-05-10T21:37:45.897Z,32.80
2019-05-10T21:40:15.223Z,30.73
2019-05-10T21:42:44.449Z,31.63
2019-05-10T21:45:14.103Z,35.15
2019-05-10T21:47:51.153Z,30.83
2019-05-10T21:50:14.271Z,31.67
2019-05-10T21:52:43.441Z,31.27
2019-05-10T21:55:12.733Z,32.13
2019-05-10T21:57:41.963Z,32.43
2019-05-10T22:00:13.239Z,33.50
2019-05-10T22:02:42.399Z,32.70
2019-05-10T22:05:11.666Z,33.67
2019-05-10T22:07:40.835Z,33.53
2019-05-10T22:10:10.149Z,35.90
2019-05-10T22:12:39.430Z,36.30
2019-05-10T22:15:08.910Z,36.43
2019-05-10T22:17:38.139Z,35.73
2019-05-10T22:20:08.277Z,36.47
2019-05-10T22:22:37.519Z,34.30
2019-05-10T22:25:07.031Z,35.77
2019-05-10T22:27:36.316Z,35.63
2019-05-10T22:30:12.207Z,34.77
2019-05-10T22:32:40.430Z,33.53
2019-05-10T22:35:11.612Z,35.80
2019-05-10T22:37:40.842Z,34.87
2019-05-10T22:40:10.755Z,36.00
2019-05-10T22:42:39.946Z,35.90
2019-05-10T22:45:09.355Z,36.10
2019-05-10T22:47:38.525Z,35.20
2019-05-10T22:50:08.837Z,35.93
2019-05-10T22:52:38.080Z,36.80
2019-05-10T22:55:07.891Z,36.80
2019-05-10T22:57:37.112Z,38.07
2019-05-10T23:00:09.151Z,38.23
2019-05-10T23:02:38.391Z,40.60
2019-05-10T23:05:07.932Z,39.77
2019-05-10T23:07:37.093Z,38.93
2019-05-10T23:10:07.279Z,40.53
2019-05-10T23:12:36.506Z,40.97
2019-05-10T23:15:07.086Z,39.03
2019-05-10T23:17:36.257Z,40.53
2019-05-10T23:20:06.159Z,40.13
2019-05-10T23:22:35.317Z,41.10
2019-05-10T23:25:06.427Z,39.70
2019-05-10T23:27:35.651Z,40.57
2019-05-10T23:30:06.114Z,38.07
2019-05-10T23:32:35.278Z,38.00
2019-05-10T23:35:06.702Z,36.20
2019-05-10T23:37:35.947Z,37.87
2019-05-10T23:40:09.148Z,37.17
2019-05-10T23:42:38.641Z,37.83
2019-05-10T23:45:09.775Z,37.93
2019-05-10T23:47:38.999Z,39.53
2019-05-10T23:50:08.873Z,39.90
2019-05-10T23:52:38.275Z,39.37
2019-05-10T23:55:08.166Z,38.50
2019-05-10T23:57:37.406Z,39.10
